sensor_id;sensor_type;location;lat;lon;timestamp;temperature;humidity
5980;DHT22;3016;50.308;8.258;2023-01-29T00:00:27;-1.50;1.00
5980;DHT22;3016;50.308;8.258;2023-01-29T00:03:28;-1.50;1.00
5980;DHT22;3016;50.308;8.258;2023-01-29T00:06:29;-1.50;1.00
5980;DHT22;3016;50.308;8.258;2023-01-29T00:09:30;-1.50;1.00
5980;DHT22;3016;50.308;8.258;2023-01-29T00:12:31;-1.50;1.00
5980;DHT22;3016;50.308;8.258;2023-01-29T00:15:31;-1.50;1.00
5980;DHT22;3016;50.308;8.258;2023-01-29T00:18:32;-1.50;1.00
5980;DHT22;3016;50.308;8.258;2023-01-29T00:21:33;-1.40;1.00
5980;DHT22;3016;50.308;8.258;2023-01-29T00:24:34;-1.40;1.00
5980;DHT22;3016;50.308;8.258;2023-01-29T00:27:34;-1.40;1.00
5980;DHT22;3016;50.308;8.258;2023-01-29T00:30:36;-1.40;1.00
5980;DHT22;3016;50.308;8.258;2023-01-29T00:33:37;-1.30;1.00
5980;DHT22;3016;50.308;8.258;2023-01-29T00:36:37;-1.40;1.00
5980;DHT22;3016;50.308;8.258;2023-01-29T00:39:38;-1.40;1.00
5980;DHT22;3016;50.308;8.258;2023-01-29T00:42:39;-1.40;1.00
5980;DHT22;3016;50.308;8.258;2023-01-29T00:45:58;-1.40;1.00
5980;DHT22;3016;50.308;8.258;2023-01-29T00:48:59;-1.40;1.00
5980;DHT22;3016;50.308;8.258;2023-01-29T00:51:59;-1.40;1.00
5980;DHT22;3016;50.308;8.258;2023-01-29T00:55:18;-1.40;1.00
5980;DHT22;3016;50.308;8.258;2023-01-29T00:58:19;-1.40;1.00
5980;DHT22;3016;50.308;8.258;2023-01-29T01:01:22;-1.40;1.00
5980;DHT22;3016;50.308;8.258;2023-01-29T01:04:41;-1.40;1.00
5980;DHT22;3016;50.308;8.258;2023-01-29T01:07:44;-1.50;1.00
5980;DHT22;3016;50.308;8.258;2023-01-29T01:10:45;-1.50;1.00
5980;DHT22;3016;50.308;8.258;2023-01-29T01:13:46;-1.50;1.00
5980;DHT22;3016;50.308;8.258;2023-01-29T01:16:47;-1.50;1.00
5980;DHT22;3016;50.308;8.258;2023-01-29T01:19:48;-1.60;1.00
5980;DHT22;3016;50.308;8.258;2023-01-29T01:22:49;-1.60;1.00
5980;DHT22;3016;50.308;8.258;2023-01-29T01:25:50;-1.70;1.00
5980;DHT22;3016;50.308;8.258;2023-01-29T01:28:51;-1.80;1.00
5980;DHT22;3016;50.308;8.258;2023-01-29T01:31:54;-1.80;1.00
5980;DHT22;3016;50.308;8.258;2023-01-29T01:34:55;-1.90;1.00
5980;DHT22;3016;50.308;8.258;2023-01-29T01:37:56;-1.90;1.00
5980;DHT22;3016;50.308;8.258;2023-01-29T01:40:56;-2.00;1.00
5980;DHT22;3016;50.308;8.258;2023-01-29T01:43:59;-2.00;1.00
5980;DHT22;3016;50.308;8.258;2023-01-29T01:47:01;-2.10;1.00
5980;DHT22;3016;50.308;8.258;2023-01-29T01:50:10;-2.10;1.00
5980;DHT22;3016;50.308;8.258;2023-01-29T01:53:17;-2.10;1.00
5980;DHT22;3016;50.308;8.258;2023-01-29T01:56:29;-2.20;1.00
5980;DHT22;3016;50.308;8.258;2023-01-29T01:59:39;-2.20;1.00
5980;DHT22;3016;50.308;8.258;2023-01-29T02:02:42;-2.20;1.00
5980;DHT22;3016;50.308;8.258;2023-01-29T02:06:03;-2.20;1.00
5980;DHT22;3016;50.308;8.258;2023-01-29T02:09:27;-2.30;1.00
5980;DHT22;3016;50.308;8.258;2023-01-29T02:12:36;-2.30;1.00
5980;DHT22;3016;50.308;8.258;2023-01-29T02:15:37;-2.30;1.00
5980;DHT22;3016;50.308;8.258;2023-01-29T02:18:45;-2.30;1.00
5980;DHT22;3016;50.308;8.258;2023-01-29T02:26:22;-2.20;1.00
5980;DHT22;3016;50.308;8.258;2023-01-29T02:33:41;-2.20;1.00
5980;DHT22;3016;50.308;8.258;2023-01-29T02:37:05;-2.20;1.00
5980;DHT22;3016;50.308;8.258;2023-01-29T02:47:20;-2.10;1.00
5980;DHT22;3016;50.308;8.258;2023-01-29T02:50:37;-2.10;1.00
5980;DHT22;3016;50.308;8.258;2023-01-29T02:54:03;-2.00;1.00
5980;DHT22;3016;50.308;8.258;2023-01-29T02:57:20;-2.00;1.00
5980;DHT22;3016;50.308;8.258;2023-01-29T03:00:29;-2.00;1.00
5980;DHT22;3016;50.308;8.258;2023-01-29T03:03:46;-2.10;1.00
5980;DHT22;3016;50.308;8.258;2023-01-29T03:06:53;-2.10;1.00
5980;DHT22;3016;50.308;8.258;2023-01-29T03:09:58;-2.00;1.00
5980;DHT22;3016;50.308;8.258;2023-01-29T03:13:14;-2.00;1.00
5980;DHT22;3016;50.308;8.258;2023-01-29T03:16:40;-2.00;1.00
5980;DHT22;3016;50.308;8.258;2023-01-29T03:19:46;-2.00;1.00
5980;DHT22;3016;50.308;8.258;2023-01-29T03:22:57;-2.00;1.00
5980;DHT22;3016;50.308;8.258;2023-01-29T03:26:03;-2.10;1.00
5980;DHT22;3016;50.308;8.258;2023-01-29T03:29:23;-2.10;1.00
5980;DHT22;3016;50.308;8.258;2023-01-29T03:32:43;-2.10;1.00
5980;DHT22;3016;50.308;8.258;2023-01-29T03:35:57;-2.10;1.00
5980;DHT22;3016;50.308;8.258;2023-01-29T03:39:07;-2.20;1.00
5980;DHT22;3016;50.308;8.258;2023-01-29T03:46:05;-2.30;1.00
5980;DHT22;3016;50.308;8.258;2023-01-29T03:49:19;-2.30;1.00
5980;DHT22;3016;50.308;8.258;2023-01-29T03:55:36;-2.30;1.00
5980;DHT22;3016;50.308;8.258;2023-01-29T03:58:54;-2.40;1.00
5980;DHT22;3016;50.308;8.258;2023-01-29T04:02:01;-2.40;1.00
5980;DHT22;3016;50.308;8.258;2023-01-29T04:05:16;-2.30;1.00
5980;DHT22;3016;50.308;8.258;2023-01-29T04:08:26;-2.40;1.00
5980;DHT22;3016;50.308;8.258;2023-01-29T04:11:28;-2.40;1.00
5980;DHT22;3016;50.308;8.258;2023-01-29T04:14:30;-2.50;1.00
5980;DHT22;3016;50.308;8.258;2023-01-29T04:17:37;-2.50;1.00
5980;DHT22;3016;50.308;8.258;2023-01-29T04:20:39;-2.60;1.00
5980;DHT22;3016;50.308;8.258;2023-01-29T04:23:40;-2.70;1.00
5980;DHT22;3016;50.308;8.258;2023-01-29T04:27:05;-2.70;1.00
5980;DHT22;3016;50.308;8.258;2023-01-29T04:30:34;-2.70;1.00
5980;DHT22;3016;50.308;8.258;2023-01-29T04:40:39;-2.70;1.00
5980;DHT22;3016;50.308;8.258;2023-01-29T04:44:10;-2.70;1.00
5980;DHT22;3016;50.308;8.258;2023-01-29T04:47:47;-2.70;1.00
5980;DHT22;3016;50.308;8.258;2023-01-29T04:51:18;-2.70;1.00
5980;DHT22;3016;50.308;8.258;2023-01-29T04:54:36;-2.70;1.00
5980;DHT22;3016;50.308;8.258;2023-01-29T04:57:50;-2.60;1.00
5980;DHT22;3016;50.308;8.258;2023-01-29T05:01:03;-2.60;1.00
5980;DHT22;3016;50.308;8.258;2023-01-29T05:04:08;-2.60;1.00
5980;DHT22;3016;50.308;8.258;2023-01-29T05:07:13;-2.70;1.00
5980;DHT22;3016;50.308;8.258;2023-01-29T05:10:17;-2.70;1.00
5980;DHT22;3016;50.308;8.258;2023-01-29T05:13:20;-2.70;1.00
5980;DHT22;3016;50.308;8.258;2023-01-29T05:16:25;-2.70;1.00
5980;DHT22;3016;50.308;8.258;2023-01-29T05:19:27;-2.60;1.00
5980;DHT22;3016;50.308;8.258;2023-01-29T05:22:28;-2.70;1.00
5980;DHT22;3016;50.308;8.258;2023-01-29T05:25:31;-2.60;1.00
5980;DHT22;3016;50.308;8.258;2023-01-29T05:28:32;-2.60;1.00
5980;DHT22;3016;50.308;8.258;2023-01-29T05:31:33;-2.60;1.00
5980;DHT22;3016;50.308;8.258;2023-01-29T05:34:34;-2.60;1.00
5980;DHT22;3016;50.308;8.258;2023-01-29T05:37:34;-2.60;1.00
5980;DHT22;3016;50.308;8.258;2023-01-29T05:40:36;-2.60;1.00
5980;DHT22;3016;50.308;8.258;2023-01-29T05:43:37;-2.50;1.00
5980;DHT22;3016;50.308;8.258;2023-01-29T05:46:38;-2.50;1.00
5980;DHT22;3016;50.308;8.258;2023-01-29T05:49:38;-2.40;1.00
5980;DHT22;3016;50.308;8.258;2023-01-29T05:52:39;-2.40;1.00
5980;DHT22;3016;50.308;8.258;2023-01-29T05:55:45;-2.40;1.00
5980;DHT22;3016;50.308;8.258;2023-01-29T05:58:46;-2.40;1.00
5980;DHT22;3016;50.308;8.258;2023-01-29T06:01:47;-2.30;1.00
5980;DHT22;3016;50.308;8.258;2023-01-29T06:04:50;-2.40;1.00
5980;DHT22;3016;50.308;8.258;2023-01-29T06:07:51;-2.30;1.00
5980;DHT22;3016;50.308;8.258;2023-01-29T06:10:52;-2.30;1.00
5980;DHT22;3016;50.308;8.258;2023-01-29T06:13:55;-2.30;1.00
5980;DHT22;3016;50.308;8.258;2023-01-29T06:16:56;-2.30;1.00
5980;DHT22;3016;50.308;8.258;2023-01-29T06:19:57;-2.30;1.00
5980;DHT22;3016;50.308;8.258;2023-01-29T06:22:58;-2.20;1.00
5980;DHT22;3016;50.308;8.258;2023-01-29T06:26:00;-2.20;1.00
5980;DHT22;3016;50.308;8.258;2023-01-29T06:29:03;-2.20;1.00
5980;DHT22;3016;50.308;8.258;2023-01-29T06:32:04;-2.20;1.00
5980;DHT22;3016;50.308;8.258;2023-01-29T06:35:05;-2.20;1.00
5980;DHT22;3016;50.308;8.258;2023-01-29T06:38:06;-2.20;1.00
5980;DHT22;3016;50.308;8.258;2023-01-29T06:41:11;-2.10;1.00
5980;DHT22;3016;50.308;8.258;2023-01-29T06:44:14;-2.10;1.00
5980;DHT22;3016;50.308;8.258;2023-01-29T06:47:15;-2.20;1.00
5980;DHT22;3016;50.308;8.258;2023-01-29T06:50:16;-2.10;1.00
5980;DHT22;3016;50.308;8.258;2023-01-29T06:53:17;-2.10;1.00
5980;DHT22;3016;50.308;8.258;2023-01-29T06:56:17;-2.10;1.00
5980;DHT22;3016;50.308;8.258;2023-01-29T06:59:18;-2.10;1.00
5980;DHT22;3016;50.308;8.258;2023-01-29T07:02:19;-2.10;1.00
5980;DHT22;3016;50.308;8.258;2023-01-29T07:05:19;-2.10;1.00
5980;DHT22;3016;50.308;8.258;2023-01-29T07:08:20;-2.10;1.00
5980;DHT22;3016;50.308;8.258;2023-01-29T07:11:22;-2.10;1.00
5980;DHT22;3016;50.308;8.258;2023-01-29T07:14:22;-2.10;1.00
5980;DHT22;3016;50.308;8.258;2023-01-29T07:17:23;-2.10;1.00
5980;DHT22;3016;50.308;8.258;2023-01-29T07:20:25;-2.00;1.00
5980;DHT22;3016;50.308;8.258;2023-01-29T07:23:29;-2.00;1.00
5980;DHT22;3016;50.308;8.258;2023-01-29T07:26:30;-2.00;1.00
5980;DHT22;3016;50.308;8.258;2023-01-29T07:29:31;-2.00;1.00
5980;DHT22;3016;50.308;8.258;2023-01-29T07:32:31;-2.00;1.00
5980;DHT22;3016;50.308;8.258;2023-01-29T07:35:38;-2.00;1.00
5980;DHT22;3016;50.308;8.258;2023-01-29T07:38:40;-2.00;1.00
5980;DHT22;3016;50.308;8.258;2023-01-29T07:41:41;-2.00;1.00
5980;DHT22;3016;50.308;8.258;2023-01-29T07:44:41;-2.00;1.00
5980;DHT22;3016;50.308;8.258;2023-01-29T07:47:42;-1.90;1.00
5980;DHT22;3016;50.308;8.258;2023-01-29T07:50:43;-1.90;1.00
5980;DHT22;3016;50.308;8.258;2023-01-29T07:53:43;-1.90;1.00
5980;DHT22;3016;50.308;8.258;2023-01-29T07:56:44;-1.90;1.00
5980;DHT22;3016;50.308;8.258;2023-01-29T07:59:45;-1.80;1.00
5980;DHT22;3016;50.308;8.258;2023-01-29T08:02:45;-1.80;1.00
5980;DHT22;3016;50.308;8.258;2023-01-29T08:05:46;-1.80;1.00
5980;DHT22;3016;50.308;8.258;2023-01-29T08:08:47;-1.70;1.00
5980;DHT22;3016;50.308;8.258;2023-01-29T08:11:48;-1.80;1.00
5980;DHT22;3016;50.308;8.258;2023-01-29T08:14:48;-1.70;1.00
5980;DHT22;3016;50.308;8.258;2023-01-29T08:17:50;-1.70;1.00
5980;DHT22;3016;50.308;8.258;2023-01-29T08:20:51;-1.70;1.00
5980;DHT22;3016;50.308;8.258;2023-01-29T08:23:52;-1.60;1.00
5980;DHT22;3016;50.308;8.258;2023-01-29T08:26:53;-1.60;1.00
5980;DHT22;3016;50.308;8.258;2023-01-29T08:29:53;-1.50;1.00
5980;DHT22;3016;50.308;8.258;2023-01-29T08:32:54;-1.40;1.00
5980;DHT22;3016;50.308;8.258;2023-01-29T08:35:55;-1.40;1.00
5980;DHT22;3016;50.308;8.258;2023-01-29T08:38:56;-1.30;1.00
5980;DHT22;3016;50.308;8.258;2023-01-29T08:41:57;-1.20;1.00
5980;DHT22;3016;50.308;8.258;2023-01-29T08:44:57;-1.20;1.00
5980;DHT22;3016;50.308;8.258;2023-01-29T08:47:58;-1.20;1.00
5980;DHT22;3016;50.308;8.258;2023-01-29T08:50:59;-1.20;1.00
5980;DHT22;3016;50.308;8.258;2023-01-29T08:54:01;-1.20;1.00
5980;DHT22;3016;50.308;8.258;2023-01-29T08:57:02;-1.10;1.00
5980;DHT22;3016;50.308;8.258;2023-01-29T09:00:04;-1.20;1.00
5980;DHT22;3016;50.308;8.258;2023-01-29T09:03:06;-1.20;1.00
5980;DHT22;3016;50.308;8.258;2023-01-29T09:06:09;-1.20;1.00
5980;DHT22;3016;50.308;8.258;2023-01-29T09:09:10;-1.10;1.00
5980;DHT22;3016;50.308;8.258;2023-01-29T09:12:11;-1.10;1.00
5980;DHT22;3016;50.308;8.258;2023-01-29T09:15:12;-1.10;1.00
5980;DHT22;3016;50.308;8.258;2023-01-29T09:18:12;-1.10;1.00
5980;DHT22;3016;50.308;8.258;2023-01-29T09:21:13;-1.10;1.00
5980;DHT22;3016;50.308;8.258;2023-01-29T09:24:14;-1.10;1.00
5980;DHT22;3016;50.308;8.258;2023-01-29T09:27:15;-1.10;1.00
5980;DHT22;3016;50.308;8.258;2023-01-29T09:30:16;-1.10;1.00
5980;DHT22;3016;50.308;8.258;2023-01-29T09:33:17;-1.10;1.00
5980;DHT22;3016;50.308;8.258;2023-01-29T09:36:18;-1.20;1.00
5980;DHT22;3016;50.308;8.258;2023-01-29T09:39:19;-1.10;1.00
5980;DHT22;3016;50.308;8.258;2023-01-29T09:42:28;-1.10;1.00
5980;DHT22;3016;50.308;8.258;2023-01-29T09:45:34;-1.10;1.00
5980;DHT22;3016;50.308;8.258;2023-01-29T09:48:36;-1.10;1.00
5980;DHT22;3016;50.308;8.258;2023-01-29T09:51:40;-1.10;1.00
5980;DHT22;3016;50.308;8.258;2023-01-29T09:58:24;-1.00;1.00
5980;DHT22;3016;50.308;8.258;2023-01-29T10:01:47;-0.90;1.00
5980;DHT22;3016;50.308;8.258;2023-01-29T10:12:17;-0.80;1.00
5980;DHT22;3016;50.308;8.258;2023-01-29T10:15:45;-0.80;1.00
5980;DHT22;3016;50.308;8.258;2023-01-29T10:19:16;-0.80;1.00
5980;DHT22;3016;50.308;8.258;2023-01-29T10:26:15;-0.70;1.00
5980;DHT22;3016;50.308;8.258;2023-01-29T10:29:18;-0.60;1.00
5980;DHT22;3016;50.308;8.258;2023-01-29T10:32:24;-0.50;1.00
5980;DHT22;3016;50.308;8.258;2023-01-29T10:35:40;-0.50;1.00
5980;DHT22;3016;50.308;8.258;2023-01-29T10:38:44;-0.60;1.00
5980;DHT22;3016;50.308;8.258;2023-01-29T10:48:39;-0.40;1.00
5980;DHT22;3016;50.308;8.258;2023-01-29T10:52:22;-0.40;1.00
5980;DHT22;3016;50.308;8.258;2023-01-29T10:56:08;-0.50;1.00
5980;DHT22;3016;50.308;8.258;2023-01-29T10:59:33;-0.60;1.00
5980;DHT22;3016;50.308;8.258;2023-01-29T11:02:44;-0.40;1.00
5980;DHT22;3016;50.308;8.258;2023-01-29T11:06:20;-0.20;1.00
5980;DHT22;3016;50.308;8.258;2023-01-29T11:09:31;0.10;1.00
5980;DHT22;3016;50.308;8.258;2023-01-29T11:12:36;0.30;1.00
5980;DHT22;3016;50.308;8.258;2023-01-29T11:15:38;0.30;1.00
5980;DHT22;3016;50.308;8.258;2023-01-29T11:18:56;0.40;1.00
5980;DHT22;3016;50.308;8.258;2023-01-29T11:22:00;0.60;1.00
5980;DHT22;3016;50.308;8.258;2023-01-29T11:28:35;0.60;1.00
5980;DHT22;3016;50.308;8.258;2023-01-29T11:31:40;0.60;1.00
5980;DHT22;3016;50.308;8.258;2023-01-29T11:38:27;0.50;1.00
5980;DHT22;3016;50.308;8.258;2023-01-29T11:41:28;0.50;1.00
5980;DHT22;3016;50.308;8.258;2023-01-29T11:47:32;0.30;1.00
5980;DHT22;3016;50.308;8.258;2023-01-29T11:50:33;0.40;1.00
5980;DHT22;3016;50.308;8.258;2023-01-29T11:53:44;0.30;1.00
5980;DHT22;3016;50.308;8.258;2023-01-29T11:56:58;0.30;1.00
5980;DHT22;3016;50.308;8.258;2023-01-29T12:00:15;0.60;1.00
5980;DHT22;3016;50.308;8.258;2023-01-29T12:06:41;1.30;1.00
5980;DHT22;3016;50.308;8.258;2023-01-29T12:09:58;2.10;1.00
5980;DHT22;3016;50.308;8.258;2023-01-29T12:16:27;1.90;1.00
5980;DHT22;3016;50.308;8.258;2023-01-29T12:19:52;1.30;1.00
5980;DHT22;3016;50.308;8.258;2023-01-29T12:26:48;0.70;1.00
5980;DHT22;3016;50.308;8.258;2023-01-29T12:30:15;0.70;1.00
5980;DHT22;3016;50.308;8.258;2023-01-29T12:33:40;0.90;1.00
5980;DHT22;3016;50.308;8.258;2023-01-29T12:40:31;1.10;1.00
5980;DHT22;3016;50.308;8.258;2023-01-29T12:43:42;1.30;1.00
5980;DHT22;3016;50.308;8.258;2023-01-29T12:46:51;1.30;1.00
5980;DHT22;3016;50.308;8.258;2023-01-29T12:49:56;1.40;1.00
5980;DHT22;3016;50.308;8.258;2023-01-29T12:53:18;1.50;1.00
5980;DHT22;3016;50.308;8.258;2023-01-29T12:56:42;1.50;1.00
5980;DHT22;3016;50.308;8.258;2023-01-29T13:00:05;1.70;1.00
5980;DHT22;3016;50.308;8.258;2023-01-29T13:06:48;2.10;1.00
5980;DHT22;3016;50.308;8.258;2023-01-29T13:10:12;2.30;1.00
5980;DHT22;3016;50.308;8.258;2023-01-29T13:13:29;1.90;1.00
5980;DHT22;3016;50.308;8.258;2023-01-29T13:16:37;1.90;1.00
5980;DHT22;3016;50.308;8.258;2023-01-29T13:19:44;1.90;1.00
5980;DHT22;3016;50.308;8.258;2023-01-29T13:22:47;2.00;1.00
5980;DHT22;3016;50.308;8.258;2023-01-29T13:25:53;1.90;1.00
5980;DHT22;3016;50.308;8.258;2023-01-29T13:28:54;2.20;1.00
5980;DHT22;3016;50.308;8.258;2023-01-29T13:31:56;2.40;1.00
5980;DHT22;3016;50.308;8.258;2023-01-29T13:35:01;2.80;1.00
5980;DHT22;3016;50.308;8.258;2023-01-29T13:38:05;2.90;1.00
5980;DHT22;3016;50.308;8.258;2023-01-29T13:41:38;2.80;1.00
5980;DHT22;3016;50.308;8.258;2023-01-29T13:44:47;2.90;1.00
5980;DHT22;3016;50.308;8.258;2023-01-29T13:47:50;2.80;1.00
5980;DHT22;3016;50.308;8.258;2023-01-29T13:50:58;2.50;1.00
5980;DHT22;3016;50.308;8.258;2023-01-29T13:54:07;2.30;1.00
5980;DHT22;3016;50.308;8.258;2023-01-29T14:00:48;2.40;1.00
5980;DHT22;3016;50.308;8.258;2023-01-29T14:03:50;2.20;1.00
5980;DHT22;3016;50.308;8.258;2023-01-29T14:06:59;2.00;1.00
5980;DHT22;3016;50.308;8.258;2023-01-29T14:10:21;2.00;1.00
5980;DHT22;3016;50.308;8.258;2023-01-29T14:13:26;2.00;1.00
5980;DHT22;3016;50.308;8.258;2023-01-29T14:16:33;2.10;1.00
5980;DHT22;3016;50.308;8.258;2023-01-29T14:19:35;2.10;1.00
5980;DHT22;3016;50.308;8.258;2023-01-29T14:22:36;2.00;1.00
5980;DHT22;3016;50.308;8.258;2023-01-29T14:25:37;1.70;1.00
5980;DHT22;3016;50.308;8.258;2023-01-29T14:28:39;1.60;1.00
5980;DHT22;3016;50.308;8.258;2023-01-29T14:34:50;1.40;1.00
5980;DHT22;3016;50.308;8.258;2023-01-29T14:37:58;1.30;1.00
5980;DHT22;3016;50.308;8.258;2023-01-29T14:41:25;1.20;1.00
5980;DHT22;3016;50.308;8.258;2023-01-29T14:47:55;1.20;1.00
5980;DHT22;3016;50.308;8.258;2023-01-29T14:51:05;1.20;1.00
5980;DHT22;3016;50.308;8.258;2023-01-29T14:54:21;1.10;1.00
5980;DHT22;3016;50.308;8.258;2023-01-29T14:57:25;1.10;1.00
5980;DHT22;3016;50.308;8.258;2023-01-29T15:00:35;1.10;1.00
5980;DHT22;3016;50.308;8.258;2023-01-29T15:03:44;1.00;1.00
5980;DHT22;3016;50.308;8.258;2023-01-29T15:06:58;1.00;1.00
5980;DHT22;3016;50.308;8.258;2023-01-29T15:10:17;0.90;1.00
5980;DHT22;3016;50.308;8.258;2023-01-29T15:13:36;0.80;1.00
5980;DHT22;3016;50.308;8.258;2023-01-29T15:20:35;0.70;1.00
5980;DHT22;3016;50.308;8.258;2023-01-29T15:23:38;0.70;1.00
5980;DHT22;3016;50.308;8.258;2023-01-29T15:26:41;0.70;1.00
5980;DHT22;3016;50.308;8.258;2023-01-29T15:29:47;0.60;1.00
5980;DHT22;3016;50.308;8.258;2023-01-29T15:32:55;0.50;1.00
5980;DHT22;3016;50.308;8.258;2023-01-29T15:36:01;0.60;1.00
5980;DHT22;3016;50.308;8.258;2023-01-29T15:42:13;0.50;1.00
5980;DHT22;3016;50.308;8.258;2023-01-29T15:45:30;0.40;1.00
5980;DHT22;3016;50.308;8.258;2023-01-29T15:48:41;0.40;1.00
5980;DHT22;3016;50.308;8.258;2023-01-29T15:51:42;0.30;1.00
5980;DHT22;3016;50.308;8.258;2023-01-29T15:54:43;0.30;1.00
5980;DHT22;3016;50.308;8.258;2023-01-29T15:57:45;0.20;1.00
5980;DHT22;3016;50.308;8.258;2023-01-29T16:00:51;0.10;1.00
5980;DHT22;3016;50.308;8.258;2023-01-29T16:03:54;0.00;1.00
5980;DHT22;3016;50.308;8.258;2023-01-29T16:06:57;-0.10;1.00
5980;DHT22;3016;50.308;8.258;2023-01-29T16:10:00;-0.20;1.00
5980;DHT22;3016;50.308;8.258;2023-01-29T16:13:02;-0.20;1.00
5980;DHT22;3016;50.308;8.258;2023-01-29T16:16:13;-0.30;1.00
5980;DHT22;3016;50.308;8.258;2023-01-29T16:19:24;-0.40;1.00
5980;DHT22;3016;50.308;8.258;2023-01-29T16:22:35;-0.50;1.00
5980;DHT22;3016;50.308;8.258;2023-01-29T16:25:37;-0.50;1.00
5980;DHT22;3016;50.308;8.258;2023-01-29T16:28:43;-0.60;1.00
5980;DHT22;3016;50.308;8.258;2023-01-29T16:31:46;-0.70;1.00
5980;DHT22;3016;50.308;8.258;2023-01-29T16:34:48;-0.80;1.00
5980;DHT22;3016;50.308;8.258;2023-01-29T16:37:53;-0.80;1.00
5980;DHT22;3016;50.308;8.258;2023-01-29T16:41:15;-0.80;1.00
5980;DHT22;3016;50.308;8.258;2023-01-29T16:44:34;-0.90;1.00
5980;DHT22;3016;50.308;8.258;2023-01-29T16:47:37;-1.00;1.00
5980;DHT22;3016;50.308;8.258;2023-01-29T16:50:40;-1.10;1.00
5980;DHT22;3016;50.308;8.258;2023-01-29T16:53:54;-1.20;1.00
5980;DHT22;3016;50.308;8.258;2023-01-29T16:56:58;-1.30;1.00
5980;DHT22;3016;50.308;8.258;2023-01-29T17:00:06;-1.40;1.00
5980;DHT22;3016;50.308;8.258;2023-01-29T17:03:16;-1.50;1.00
5980;DHT22;3016;50.308;8.258;2023-01-29T17:06:23;-1.60;1.00
5980;DHT22;3016;50.308;8.258;2023-01-29T17:09:30;-1.60;1.00
5980;DHT22;3016;50.308;8.258;2023-01-29T17:12:33;-1.70;1.00
5980;DHT22;3016;50.308;8.258;2023-01-29T17:18:47;-1.80;1.00
5980;DHT22;3016;50.308;8.258;2023-01-29T17:21:48;-1.90;1.00
5980;DHT22;3016;50.308;8.258;2023-01-29T17:24:49;-2.00;1.00
5980;DHT22;3016;50.308;8.258;2023-01-29T17:27:51;-2.00;1.00
5980;DHT22;3016;50.308;8.258;2023-01-29T17:30:51;-2.10;1.00
5980;DHT22;3016;50.308;8.258;2023-01-29T17:33:52;-2.10;1.00
5980;DHT22;3016;50.308;8.258;2023-01-29T17:36:53;-2.20;1.00
5980;DHT22;3016;50.308;8.258;2023-01-29T17:39:55;-2.20;1.00
5980;DHT22;3016;50.308;8.258;2023-01-29T17:42:55;-2.30;1.00
5980;DHT22;3016;50.308;8.258;2023-01-29T17:45:56;-2.40;1.00
5980;DHT22;3016;50.308;8.258;2023-01-29T17:48:57;-2.40;1.00
5980;DHT22;3016;50.308;8.258;2023-01-29T17:52:00;-2.50;1.00
5980;DHT22;3016;50.308;8.258;2023-01-29T17:55:04;-2.50;1.00
5980;DHT22;3016;50.308;8.258;2023-01-29T17:58:07;-2.60;1.00
5980;DHT22;3016;50.308;8.258;2023-01-29T18:01:12;-2.60;1.00
5980;DHT22;3016;50.308;8.258;2023-01-29T18:04:13;-2.70;1.00
5980;DHT22;3016;50.308;8.258;2023-01-29T18:07:13;-2.70;1.00
5980;DHT22;3016;50.308;8.258;2023-01-29T18:10:19;-2.80;1.00
5980;DHT22;3016;50.308;8.258;2023-01-29T18:13:20;-2.80;1.00
5980;DHT22;3016;50.308;8.258;2023-01-29T18:16:23;-2.90;1.00
5980;DHT22;3016;50.308;8.258;2023-01-29T18:19:25;-2.90;1.00
5980;DHT22;3016;50.308;8.258;2023-01-29T18:22:30;-3.00;1.00
5980;DHT22;3016;50.308;8.258;2023-01-29T18:25:32;-3.00;1.00
5980;DHT22;3016;50.308;8.258;2023-01-29T18:28:33;-3.00;1.00
5980;DHT22;3016;50.308;8.258;2023-01-29T18:31:34;-3.00;1.00
5980;DHT22;3016;50.308;8.258;2023-01-29T18:34:35;-3.10;1.00
5980;DHT22;3016;50.308;8.258;2023-01-29T18:37:35;-3.10;1.00
5980;DHT22;3016;50.308;8.258;2023-01-29T18:40:36;-3.10;1.00
5980;DHT22;3016;50.308;8.258;2023-01-29T18:43:38;-3.20;1.00
5980;DHT22;3016;50.308;8.258;2023-01-29T18:46:39;-3.30;1.00
5980;DHT22;3016;50.308;8.258;2023-01-29T18:49:40;-3.30;1.00
5980;DHT22;3016;50.308;8.258;2023-01-29T18:52:43;-3.40;1.00
5980;DHT22;3016;50.308;8.258;2023-01-29T18:55:53;-3.40;1.00
5980;DHT22;3016;50.308;8.258;2023-01-29T18:58:55;-3.40;1.00
5980;DHT22;3016;50.308;8.258;2023-01-29T19:01:56;-3.40;1.00
5980;DHT22;3016;50.308;8.258;2023-01-29T19:04:56;-3.30;1.00
5980;DHT22;3016;50.308;8.258;2023-01-29T19:07:57;-3.30;1.00
5980;DHT22;3016;50.308;8.258;2023-01-29T19:10:58;-3.20;1.00
5980;DHT22;3016;50.308;8.258;2023-01-29T19:14:01;-3.20;1.00
5980;DHT22;3016;50.308;8.258;2023-01-29T19:17:02;-3.10;1.00
5980;DHT22;3016;50.308;8.258;2023-01-29T19:20:04;-3.00;1.00
5980;DHT22;3016;50.308;8.258;2023-01-29T19:23:05;-3.00;1.00
5980;DHT22;3016;50.308;8.258;2023-01-29T19:26:06;-3.00;1.00
5980;DHT22;3016;50.308;8.258;2023-01-29T19:29:06;-3.00;1.00
5980;DHT22;3016;50.308;8.258;2023-01-29T19:32:07;-3.00;1.00
5980;DHT22;3016;50.308;8.258;2023-01-29T19:35:09;-2.90;1.00
5980;DHT22;3016;50.308;8.258;2023-01-29T19:38:10;-2.90;1.00
5980;DHT22;3016;50.308;8.258;2023-01-29T19:41:11;-2.80;1.00
5980;DHT22;3016;50.308;8.258;2023-01-29T19:44:11;-2.80;1.00
5980;DHT22;3016;50.308;8.258;2023-01-29T19:47:12;-2.70;1.00
5980;DHT22;3016;50.308;8.258;2023-01-29T19:50:13;-2.60;1.00
5980;DHT22;3016;50.308;8.258;2023-01-29T19:53:14;-2.50;1.00
5980;DHT22;3016;50.308;8.258;2023-01-29T19:56:16;-2.40;1.00
5980;DHT22;3016;50.308;8.258;2023-01-29T19:59:17;-2.30;1.00
5980;DHT22;3016;50.308;8.258;2023-01-29T20:02:18;-2.30;1.00
5980;DHT22;3016;50.308;8.258;2023-01-29T20:05:19;-2.20;1.00
5980;DHT22;3016;50.308;8.258;2023-01-29T20:08:20;-2.00;1.00
5980;DHT22;3016;50.308;8.258;2023-01-29T20:11:23;-1.90;1.00
5980;DHT22;3016;50.308;8.258;2023-01-29T20:14:24;-1.80;1.00
5980;DHT22;3016;50.308;8.258;2023-01-29T20:17:25;-1.70;1.00
5980;DHT22;3016;50.308;8.258;2023-01-29T20:20:26;-1.70;1.00
5980;DHT22;3016;50.308;8.258;2023-01-29T20:23:29;-1.60;1.00
5980;DHT22;3016;50.308;8.258;2023-01-29T20:26:31;-1.60;1.00
5980;DHT22;3016;50.308;8.258;2023-01-29T20:29:32;-1.60;1.00
5980;DHT22;3016;50.308;8.258;2023-01-29T20:32:33;-1.60;1.00
5980;DHT22;3016;50.308;8.258;2023-01-29T20:35:35;-1.60;1.00
5980;DHT22;3016;50.308;8.258;2023-01-29T20:38:36;-1.50;1.00
5980;DHT22;3016;50.308;8.258;2023-01-29T20:41:37;-1.50;1.00
5980;DHT22;3016;50.308;8.258;2023-01-29T20:44:40;-1.40;1.00
5980;DHT22;3016;50.308;8.258;2023-01-29T20:47:41;-1.40;1.00
5980;DHT22;3016;50.308;8.258;2023-01-29T20:50:42;-1.30;1.00
5980;DHT22;3016;50.308;8.258;2023-01-29T20:53:45;-1.30;1.00
5980;DHT22;3016;50.308;8.258;2023-01-29T20:56:47;-1.30;1.00
5980;DHT22;3016;50.308;8.258;2023-01-29T20:59:47;-1.30;1.00
5980;DHT22;3016;50.308;8.258;2023-01-29T21:02:49;-1.20;1.00
5980;DHT22;3016;50.308;8.258;2023-01-29T21:05:50;-1.20;1.00
5980;DHT22;3016;50.308;8.258;2023-01-29T21:08:51;-1.20;1.00
5980;DHT22;3016;50.308;8.258;2023-01-29T21:11:52;-1.20;1.00
5980;DHT22;3016;50.308;8.258;2023-01-29T21:14:52;-1.20;1.00
5980;DHT22;3016;50.308;8.258;2023-01-29T21:17:53;-1.20;1.00
5980;DHT22;3016;50.308;8.258;2023-01-29T21:20:54;-1.10;1.00
5980;DHT22;3016;50.308;8.258;2023-01-29T21:23:55;-1.10;1.00
5980;DHT22;3016;50.308;8.258;2023-01-29T21:26:57;-1.10;1.00
5980;DHT22;3016;50.308;8.258;2023-01-29T21:29:58;-1.10;1.00
5980;DHT22;3016;50.308;8.258;2023-01-29T21:32:59;-1.10;1.00
5980;DHT22;3016;50.308;8.258;2023-01-29T21:36:00;-1.00;1.00
5980;DHT22;3016;50.308;8.258;2023-01-29T21:39:03;-1.00;1.00
5980;DHT22;3016;50.308;8.258;2023-01-29T21:42:15;-1.00;1.00
5980;DHT22;3016;50.308;8.258;2023-01-29T21:45:34;-1.00;1.00
5980;DHT22;3016;50.308;8.258;2023-01-29T21:48:35;-1.00;1.00
5980;DHT22;3016;50.308;8.258;2023-01-29T21:51:37;-1.00;1.00
5980;DHT22;3016;50.308;8.258;2023-01-29T21:54:40;-1.00;1.00
5980;DHT22;3016;50.308;8.258;2023-01-29T21:57:44;-0.90;1.00
5980;DHT22;3016;50.308;8.258;2023-01-29T22:00:46;-0.90;1.00
5980;DHT22;3016;50.308;8.258;2023-01-29T22:03:47;-0.80;1.00
5980;DHT22;3016;50.308;8.258;2023-01-29T22:06:48;-0.80;1.00
5980;DHT22;3016;50.308;8.258;2023-01-29T22:09:49;-0.80;1.00
5980;DHT22;3016;50.308;8.258;2023-01-29T22:12:50;-0.70;1.00
5980;DHT22;3016;50.308;8.258;2023-01-29T22:15:53;-0.70;1.00